sensor_id;sensor_type;location;lat;lon;timestamp;temperature;humidity
16511;DHT22;8368;48.772;8.754;2023-01-19T00:00:00;-4.40;99.90
16511;DHT22;8368;48.772;8.754;2023-01-19T00:02:25;-4.30;99.90
16511;DHT22;8368;48.772;8.754;2023-01-19T00:04:51;-4.40;99.90
16511;DHT22;8368;48.772;8.754;2023-01-19T00:07:16;-4.40;99.90
16511;DHT22;8368;48.772;8.754;2023-01-19T00:09:42;-4.50;99.90
16511;DHT22;8368;48.772;8.754;2023-01-19T00:12:08;-4.50;99.90
16511;DHT22;8368;48.772;8.754;2023-01-19T00:14:33;-4.50;99.90
16511;DHT22;8368;48.772;8.754;2023-01-19T00:16:59;-4.50;99.90
16511;DHT22;8368;48.772;8.754;2023-01-19T00:19:26;-4.50;99.90
16511;DHT22;8368;48.772;8.754;2023-01-19T00:21:52;-4.50;99.90
16511;DHT22;8368;48.772;8.754;2023-01-19T00:24:18;-4.50;99.90
16511;DHT22;8368;48.772;8.754;2023-01-19T00:26:43;-4.40;99.90
16511;DHT22;8368;48.772;8.754;2023-01-19T00:29:10;-4.40;99.90
16511;DHT22;8368;48.772;8.754;2023-01-19T00:31:36;-4.40;99.90
16511;DHT22;8368;48.772;8.754;2023-01-19T00:34:02;-4.50;99.90
16511;DHT22;8368;48.772;8.754;2023-01-19T00:36:28;-4.50;99.90
16511;DHT22;8368;48.772;8.754;2023-01-19T00:38:54;-4.50;99.90
16511;DHT22;8368;48.772;8.754;2023-01-19T00:41:19;-4.40;99.90
16511;DHT22;8368;48.772;8.754;2023-01-19T00:44:05;-4.40;99.90
16511;DHT22;8368;48.772;8.754;2023-01-19T00:46:31;-4.30;99.90
16511;DHT22;8368;48.772;8.754;2023-01-19T00:48:56;-4.20;99.90
16511;DHT22;8368;48.772;8.754;2023-01-19T00:51:22;-4.10;99.90
16511;DHT22;8368;48.772;8.754;2023-01-19T00:53:47;-4.10;99.90
16511;DHT22;8368;48.772;8.754;2023-01-19T00:56:13;-4.10;99.90
16511;DHT22;8368;48.772;8.754;2023-01-19T00:58:38;-4.10;99.90
16511;DHT22;8368;48.772;8.754;2023-01-19T01:01:04;-4.10;99.90
16511;DHT22;8368;48.772;8.754;2023-01-19T01:03:30;-4.10;99.90
16511;DHT22;8368;48.772;8.754;2023-01-19T01:05:56;-4.10;99.90
16511;DHT22;8368;48.772;8.754;2023-01-19T01:08:22;-4.10;99.90
16511;DHT22;8368;48.772;8.754;2023-01-19T01:10:47;-4.10;99.90
16511;DHT22;8368;48.772;8.754;2023-01-19T01:13:13;-4.10;99.90
16511;DHT22;8368;48.772;8.754;2023-01-19T01:15:38;-4.10;99.90
16511;DHT22;8368;48.772;8.754;2023-01-19T01:18:04;-4.10;99.90
16511;DHT22;8368;48.772;8.754;2023-01-19T01:20:29;-4.10;99.90
16511;DHT22;8368;48.772;8.754;2023-01-19T01:22:57;-4.10;99.90
16511;DHT22;8368;48.772;8.754;2023-01-19T01:25:24;-4.10;99.90
16511;DHT22;8368;48.772;8.754;2023-01-19T01:27:50;-4.00;99.90
16511;DHT22;8368;48.772;8.754;2023-01-19T01:30:16;-4.00;99.90
16511;DHT22;8368;48.772;8.754;2023-01-19T01:32:42;-4.00;99.90
16511;DHT22;8368;48.772;8.754;2023-01-19T01:35:09;-4.00;99.90
16511;DHT22;8368;48.772;8.754;2023-01-19T01:37:36;-4.00;99.90
16511;DHT22;8368;48.772;8.754;2023-01-19T01:40:02;-4.00;99.90
16511;DHT22;8368;48.772;8.754;2023-01-19T01:42:29;-4.00;99.90
16511;DHT22;8368;48.772;8.754;2023-01-19T01:44:56;-4.00;99.90
16511;DHT22;8368;48.772;8.754;2023-01-19T01:47:31;-4.10;99.90
16511;DHT22;8368;48.772;8.754;2023-01-19T01:50:10;-4.10;99.90
16511;DHT22;8368;48.772;8.754;2023-01-19T01:52:46;-4.10;99.90
16511;DHT22;8368;48.772;8.754;2023-01-19T01:55:13;-4.10;99.90
16511;DHT22;8368;48.772;8.754;2023-01-19T01:57:43;-4.10;99.90
16511;DHT22;8368;48.772;8.754;2023-01-19T02:00:10;-4.20;99.90
16511;DHT22;8368;48.772;8.754;2023-01-19T02:02:36;-4.20;99.90
16511;DHT22;8368;48.772;8.754;2023-01-19T02:05:27;-4.20;99.90
16511;DHT22;8368;48.772;8.754;2023-01-19T02:08:12;-4.20;99.90
16511;DHT22;8368;48.772;8.754;2023-01-19T02:10:57;-4.20;99.90
16511;DHT22;8368;48.772;8.754;2023-01-19T02:13:43;-4.20;99.90
16511;DHT22;8368;48.772;8.754;2023-01-19T02:16:12;-4.20;99.90
16511;DHT22;8368;48.772;8.754;2023-01-19T02:18:38;-4.20;99.90
16511;DHT22;8368;48.772;8.754;2023-01-19T02:26:21;-4.20;99.90
16511;DHT22;8368;48.772;8.754;2023-01-19T02:28:51;-4.20;99.90
16511;DHT22;8368;48.772;8.754;2023-01-19T02:31:18;-4.20;99.90
16511;DHT22;8368;48.772;8.754;2023-01-19T02:33:44;-4.20;99.90
16511;DHT22;8368;48.772;8.754;2023-01-19T02:36:11;-4.30;99.90
16511;DHT22;8368;48.772;8.754;2023-01-19T02:38:39;-4.30;99.90
16511;DHT22;8368;48.772;8.754;2023-01-19T02:41:08;-4.30;99.90
16511;DHT22;8368;48.772;8.754;2023-01-19T02:43:37;-4.30;99.90
16511;DHT22;8368;48.772;8.754;2023-01-19T02:46:03;-4.40;99.90
16511;DHT22;8368;48.772;8.754;2023-01-19T02:48:29;-4.40;99.90
16511;DHT22;8368;48.772;8.754;2023-01-19T02:50:59;-4.40;99.90
16511;DHT22;8368;48.772;8.754;2023-01-19T02:53:35;-4.40;99.90
16511;DHT22;8368;48.772;8.754;2023-01-19T03:04:27;-4.10;99.90
16511;DHT22;8368;48.772;8.754;2023-01-19T03:15:19;-3.90;99.90
16511;DHT22;8368;48.772;8.754;2023-01-19T03:17:48;-3.90;99.90
16511;DHT22;8368;48.772;8.754;2023-01-19T03:20:18;-3.90;99.90
16511;DHT22;8368;48.772;8.754;2023-01-19T03:22:48;-3.90;99.90
16511;DHT22;8368;48.772;8.754;2023-01-19T03:25:16;-3.80;99.90
16511;DHT22;8368;48.772;8.754;2023-01-19T03:27:44;-3.80;99.90
16511;DHT22;8368;48.772;8.754;2023-01-19T03:30:15;-3.80;99.90
16511;DHT22;8368;48.772;8.754;2023-01-19T03:32:48;-3.80;99.90
16511;DHT22;8368;48.772;8.754;2023-01-19T03:35:15;-3.80;99.90
16511;DHT22;8368;48.772;8.754;2023-01-19T03:37:44;-3.80;99.90
16511;DHT22;8368;48.772;8.754;2023-01-19T03:40:11;-3.80;99.90
16511;DHT22;8368;48.772;8.754;2023-01-19T03:42:38;-3.90;99.90
16511;DHT22;8368;48.772;8.754;2023-01-19T03:45:05;-3.90;99.90
16511;DHT22;8368;48.772;8.754;2023-01-19T03:47:31;-3.90;99.90
16511;DHT22;8368;48.772;8.754;2023-01-19T03:50:01;-3.90;99.90
16511;DHT22;8368;48.772;8.754;2023-01-19T03:52:31;-3.90;99.90
16511;DHT22;8368;48.772;8.754;2023-01-19T03:55:01;-3.80;99.90
16511;DHT22;8368;48.772;8.754;2023-01-19T03:57:29;-3.80;99.90
16511;DHT22;8368;48.772;8.754;2023-01-19T03:59:54;-3.80;99.90
16511;DHT22;8368;48.772;8.754;2023-01-19T04:02:21;-3.80;99.90
16511;DHT22;8368;48.772;8.754;2023-01-19T04:04:47;-3.90;99.90
16511;DHT22;8368;48.772;8.754;2023-01-19T04:07:13;-3.90;99.90
16511;DHT22;8368;48.772;8.754;2023-01-19T04:09:38;-3.90;99.90
16511;DHT22;8368;48.772;8.754;2023-01-19T04:12:04;-3.90;99.90
16511;DHT22;8368;48.772;8.754;2023-01-19T04:14:30;-3.90;99.90
16511;DHT22;8368;48.772;8.754;2023-01-19T04:16:55;-3.90;99.90
16511;DHT22;8368;48.772;8.754;2023-01-19T04:19:21;-3.80;99.90
16511;DHT22;8368;48.772;8.754;2023-01-19T04:21:49;-4.00;99.90
16511;DHT22;8368;48.772;8.754;2023-01-19T04:24:15;-4.00;99.90
16511;DHT22;8368;48.772;8.754;2023-01-19T04:26:41;-4.00;99.90
16511;DHT22;8368;48.772;8.754;2023-01-19T04:29:07;-4.00;99.90
16511;DHT22;8368;48.772;8.754;2023-01-19T04:31:32;-4.00;99.90
16511;DHT22;8368;48.772;8.754;2023-01-19T04:34:00;-4.00;99.90
16511;DHT22;8368;48.772;8.754;2023-01-19T04:36:26;-4.00;99.90
16511;DHT22;8368;48.772;8.754;2023-01-19T04:38:53;-4.10;99.90
16511;DHT22;8368;48.772;8.754;2023-01-19T04:41:18;-4.10;99.90
16511;DHT22;8368;48.772;8.754;2023-01-19T04:43:44;-4.10;99.90
16511;DHT22;8368;48.772;8.754;2023-01-19T04:46:12;-4.10;99.90
16511;DHT22;8368;48.772;8.754;2023-01-19T04:48:37;-4.20;99.90
16511;DHT22;8368;48.772;8.754;2023-01-19T04:51:03;-4.20;99.90
16511;DHT22;8368;48.772;8.754;2023-01-19T04:53:29;-4.30;99.90
16511;DHT22;8368;48.772;8.754;2023-01-19T04:55:54;-4.30;99.90
16511;DHT22;8368;48.772;8.754;2023-01-19T04:58:20;-4.40;99.90
16511;DHT22;8368;48.772;8.754;2023-01-19T05:00:45;-4.50;99.90
16511;DHT22;8368;48.772;8.754;2023-01-19T05:03:11;-4.50;99.90
16511;DHT22;8368;48.772;8.754;2023-01-19T05:05:37;-4.60;99.90
16511;DHT22;8368;48.772;8.754;2023-01-19T05:08:02;-4.60;99.90
16511;DHT22;8368;48.772;8.754;2023-01-19T05:10:28;-4.60;99.90
16511;DHT22;8368;48.772;8.754;2023-01-19T05:12:54;-4.70;99.90
16511;DHT22;8368;48.772;8.754;2023-01-19T05:15:19;-4.70;99.90
16511;DHT22;8368;48.772;8.754;2023-01-19T05:17:45;-4.70;99.90
16511;DHT22;8368;48.772;8.754;2023-01-19T05:20:11;-4.70;99.90
16511;DHT22;8368;48.772;8.754;2023-01-19T05:22:37;-4.80;99.90
16511;DHT22;8368;48.772;8.754;2023-01-19T05:25:04;-4.80;99.90
16511;DHT22;8368;48.772;8.754;2023-01-19T05:27:30;-4.70;99.90
16511;DHT22;8368;48.772;8.754;2023-01-19T05:29:56;-4.80;99.90
16511;DHT22;8368;48.772;8.754;2023-01-19T05:32:21;-4.80;99.90
16511;DHT22;8368;48.772;8.754;2023-01-19T05:34:47;-4.80;99.90
16511;DHT22;8368;48.772;8.754;2023-01-19T05:37:12;-4.80;99.90
16511;DHT22;8368;48.772;8.754;2023-01-19T05:39:38;-4.80;99.90
16511;DHT22;8368;48.772;8.754;2023-01-19T05:42:03;-4.80;99.90
16511;DHT22;8368;48.772;8.754;2023-01-19T05:44:29;-4.80;99.90
16511;DHT22;8368;48.772;8.754;2023-01-19T05:46:54;-4.80;99.90
16511;DHT22;8368;48.772;8.754;2023-01-19T05:49:20;-4.80;99.90
16511;DHT22;8368;48.772;8.754;2023-01-19T05:51:45;-4.80;99.90
16511;DHT22;8368;48.772;8.754;2023-01-19T05:54:13;-4.70;99.90
16511;DHT22;8368;48.772;8.754;2023-01-19T05:56:40;-4.70;99.90
16511;DHT22;8368;48.772;8.754;2023-01-19T05:59:05;-4.70;99.90
16511;DHT22;8368;48.772;8.754;2023-01-19T06:01:31;-4.70;99.90
16511;DHT22;8368;48.772;8.754;2023-01-19T06:03:59;-4.70;99.90
16511;DHT22;8368;48.772;8.754;2023-01-19T06:06:24;-4.60;99.90
16511;DHT22;8368;48.772;8.754;2023-01-19T06:08:50;-4.50;99.90
16511;DHT22;8368;48.772;8.754;2023-01-19T06:11:15;-4.40;99.90
16511;DHT22;8368;48.772;8.754;2023-01-19T06:13:41;-4.30;99.90
16511;DHT22;8368;48.772;8.754;2023-01-19T06:16:07;-4.20;99.90
16511;DHT22;8368;48.772;8.754;2023-01-19T06:18:33;-4.20;99.90
16511;DHT22;8368;48.772;8.754;2023-01-19T06:21:05;-4.30;99.90
16511;DHT22;8368;48.772;8.754;2023-01-19T06:23:32;-4.30;99.90
16511;DHT22;8368;48.772;8.754;2023-01-19T06:25:58;-4.40;99.90
16511;DHT22;8368;48.772;8.754;2023-01-19T06:28:24;-4.40;99.90
16511;DHT22;8368;48.772;8.754;2023-01-19T06:30:50;-4.40;99.90
16511;DHT22;8368;48.772;8.754;2023-01-19T06:33:17;-4.50;99.90
16511;DHT22;8368;48.772;8.754;2023-01-19T06:35:43;-4.50;99.90
16511;DHT22;8368;48.772;8.754;2023-01-19T06:38:09;-4.60;99.90
16511;DHT22;8368;48.772;8.754;2023-01-19T06:40:35;-4.60;99.90
16511;DHT22;8368;48.772;8.754;2023-01-19T06:43:00;-4.60;99.90
16511;DHT22;8368;48.772;8.754;2023-01-19T06:45:26;-4.60;99.90
16511;DHT22;8368;48.772;8.754;2023-01-19T06:47:51;-4.70;99.90
16511;DHT22;8368;48.772;8.754;2023-01-19T06:50:17;-4.70;99.90
16511;DHT22;8368;48.772;8.754;2023-01-19T06:52:43;-4.70;99.90
16511;DHT22;8368;48.772;8.754;2023-01-19T06:55:09;-4.80;99.90
16511;DHT22;8368;48.772;8.754;2023-01-19T06:57:36;-4.70;99.90
16511;DHT22;8368;48.772;8.754;2023-01-19T07:00:03;-4.80;99.90
16511;DHT22;8368;48.772;8.754;2023-01-19T07:02:33;-4.80;99.90
16511;DHT22;8368;48.772;8.754;2023-01-19T07:04:58;-4.90;99.90
16511;DHT22;8368;48.772;8.754;2023-01-19T07:07:24;-4.90;99.90
16511;DHT22;8368;48.772;8.754;2023-01-19T07:09:50;-4.90;99.90
16511;DHT22;8368;48.772;8.754;2023-01-19T07:12:16;-4.90;99.90
16511;DHT22;8368;48.772;8.754;2023-01-19T07:14:41;-4.90;99.90
16511;DHT22;8368;48.772;8.754;2023-01-19T07:17:07;-4.80;99.90
16511;DHT22;8368;48.772;8.754;2023-01-19T07:19:33;-4.70;99.90
16511;DHT22;8368;48.772;8.754;2023-01-19T07:21:59;-4.60;99.90
16511;DHT22;8368;48.772;8.754;2023-01-19T07:24:25;-4.50;99.90
16511;DHT22;8368;48.772;8.754;2023-01-19T07:26:51;-4.40;99.90
16511;DHT22;8368;48.772;8.754;2023-01-19T07:29:16;-4.20;99.90
16511;DHT22;8368;48.772;8.754;2023-01-19T07:31:42;-4.10;99.90
16511;DHT22;8368;48.772;8.754;2023-01-19T07:34:07;-4.00;99.90
16511;DHT22;8368;48.772;8.754;2023-01-19T07:36:33;-3.70;99.90
16511;DHT22;8368;48.772;8.754;2023-01-19T07:39:00;-3.60;99.90
16511;DHT22;8368;48.772;8.754;2023-01-19T07:41:25;-3.40;99.90
16511;DHT22;8368;48.772;8.754;2023-01-19T07:43:51;-3.30;99.90
16511;DHT22;8368;48.772;8.754;2023-01-19T07:46:17;-3.30;99.90
16511;DHT22;8368;48.772;8.754;2023-01-19T07:48:42;-3.20;99.90
16511;DHT22;8368;48.772;8.754;2023-01-19T07:51:09;-3.30;99.90
16511;DHT22;8368;48.772;8.754;2023-01-19T07:53:36;-3.30;99.90
16511;DHT22;8368;48.772;8.754;2023-01-19T07:56:02;-3.20;99.90
16511;DHT22;8368;48.772;8.754;2023-01-19T07:58:31;-3.20;99.90
16511;DHT22;8368;48.772;8.754;2023-01-19T08:00:57;-3.10;99.90
16511;DHT22;8368;48.772;8.754;2023-01-19T08:03:22;-3.10;99.90
16511;DHT22;8368;48.772;8.754;2023-01-19T08:05:50;-3.00;99.90
16511;DHT22;8368;48.772;8.754;2023-01-19T08:08:16;-2.90;99.90
16511;DHT22;8368;48.772;8.754;2023-01-19T08:10:42;-2.90;99.90
16511;DHT22;8368;48.772;8.754;2023-01-19T08:13:08;-2.90;99.90
16511;DHT22;8368;48.772;8.754;2023-01-19T08:15:33;-3.00;99.90
16511;DHT22;8368;48.772;8.754;2023-01-19T08:18:01;-3.00;99.90
16511;DHT22;8368;48.772;8.754;2023-01-19T08:20:28;-3.00;99.90
16511;DHT22;8368;48.772;8.754;2023-01-19T08:22:54;-2.90;99.90
16511;DHT22;8368;48.772;8.754;2023-01-19T08:25:25;-2.90;99.90
16511;DHT22;8368;48.772;8.754;2023-01-19T08:27:54;-2.80;99.90
16511;DHT22;8368;48.772;8.754;2023-01-19T08:30:21;-2.70;99.90
16511;DHT22;8368;48.772;8.754;2023-01-19T08:32:48;-2.50;99.90
16511;DHT22;8368;48.772;8.754;2023-01-19T08:35:13;-2.50;99.90
16511;DHT22;8368;48.772;8.754;2023-01-19T08:37:39;-2.40;99.90
16511;DHT22;8368;48.772;8.754;2023-01-19T08:40:06;-2.30;99.90
16511;DHT22;8368;48.772;8.754;2023-01-19T08:42:31;-2.30;99.90
16511;DHT22;8368;48.772;8.754;2023-01-19T08:44:57;-2.20;99.90
16511;DHT22;8368;48.772;8.754;2023-01-19T08:47:22;-2.30;99.90
16511;DHT22;8368;48.772;8.754;2023-01-19T08:49:48;-2.30;99.90
16511;DHT22;8368;48.772;8.754;2023-01-19T08:52:13;-2.30;99.90
16511;DHT22;8368;48.772;8.754;2023-01-19T08:54:39;-2.30;99.90
16511;DHT22;8368;48.772;8.754;2023-01-19T08:57:05;-2.40;99.90
16511;DHT22;8368;48.772;8.754;2023-01-19T08:59:30;-2.40;99.90
16511;DHT22;8368;48.772;8.754;2023-01-19T09:01:56;-2.40;99.90
16511;DHT22;8368;48.772;8.754;2023-01-19T09:04:22;-2.40;99.90
16511;DHT22;8368;48.772;8.754;2023-01-19T09:06:48;-2.40;99.90
16511;DHT22;8368;48.772;8.754;2023-01-19T09:09:14;-2.30;99.90
16511;DHT22;8368;48.772;8.754;2023-01-19T09:11:39;-2.40;99.90
16511;DHT22;8368;48.772;8.754;2023-01-19T09:14:05;-2.30;99.90
16511;DHT22;8368;48.772;8.754;2023-01-19T09:16:30;-2.30;99.90
16511;DHT22;8368;48.772;8.754;2023-01-19T09:18:56;-2.20;99.90
16511;DHT22;8368;48.772;8.754;2023-01-19T09:21:22;-2.10;99.90
16511;DHT22;8368;48.772;8.754;2023-01-19T09:23:48;-2.20;99.90
16511;DHT22;8368;48.772;8.754;2023-01-19T09:26:14;-2.10;99.90
16511;DHT22;8368;48.772;8.754;2023-01-19T09:28:40;-1.90;99.90
16511;DHT22;8368;48.772;8.754;2023-01-19T09:31:08;-1.80;99.90
16511;DHT22;8368;48.772;8.754;2023-01-19T09:33:34;-1.70;99.90
16511;DHT22;8368;48.772;8.754;2023-01-19T09:36:00;-1.60;99.90
16511;DHT22;8368;48.772;8.754;2023-01-19T09:38:26;-1.60;99.90
16511;DHT22;8368;48.772;8.754;2023-01-19T09:40:55;-1.50;99.90
16511;DHT22;8368;48.772;8.754;2023-01-19T09:43:43;-1.40;99.90
16511;DHT22;8368;48.772;8.754;2023-01-19T09:46:15;-1.30;99.90
16511;DHT22;8368;48.772;8.754;2023-01-19T09:48:56;-1.20;99.90
16511;DHT22;8368;48.772;8.754;2023-01-19T09:51:24;-1.20;99.90
16511;DHT22;8368;48.772;8.754;2023-01-19T09:56:31;-1.10;99.90
16511;DHT22;8368;48.772;8.754;2023-01-19T09:58:58;-0.90;99.90
16511;DHT22;8368;48.772;8.754;2023-01-19T10:01:49;-0.80;99.90
16511;DHT22;8368;48.772;8.754;2023-01-19T10:07:15;-0.40;99.90
16511;DHT22;8368;48.772;8.754;2023-01-19T10:12:34;-0.10;99.90
16511;DHT22;8368;48.772;8.754;2023-01-19T10:21:01;-0.30;99.90
16511;DHT22;8368;48.772;8.754;2023-01-19T10:26:00;-0.40;99.90
16511;DHT22;8368;48.772;8.754;2023-01-19T10:28:27;-0.40;99.90
16511;DHT22;8368;48.772;8.754;2023-01-19T10:30:54;-0.40;99.90
16511;DHT22;8368;48.772;8.754;2023-01-19T10:33:20;-0.30;99.90
16511;DHT22;8368;48.772;8.754;2023-01-19T10:35:45;-0.30;99.90
16511;DHT22;8368;48.772;8.754;2023-01-19T10:38:14;-0.20;99.90
16511;DHT22;8368;48.772;8.754;2023-01-19T10:41:06;-0.10;99.90
16511;DHT22;8368;48.772;8.754;2023-01-19T10:43:36;0.10;99.90
16511;DHT22;8368;48.772;8.754;2023-01-19T10:46:24;0.20;99.90
16511;DHT22;8368;48.772;8.754;2023-01-19T10:48:53;0.30;99.90
16511;DHT22;8368;48.772;8.754;2023-01-19T10:51:20;0.60;99.90
16511;DHT22;8368;48.772;8.754;2023-01-19T10:53:57;0.80;99.90
16511;DHT22;8368;48.772;8.754;2023-01-19T10:56:28;0.80;99.90
16511;DHT22;8368;48.772;8.754;2023-01-19T10:58:55;0.90;99.90
16511;DHT22;8368;48.772;8.754;2023-01-19T11:01:26;0.80;99.90
16511;DHT22;8368;48.772;8.754;2023-01-19T11:03:53;0.80;99.90
16511;DHT22;8368;48.772;8.754;2023-01-19T11:06:28;0.70;99.90
16511;DHT22;8368;48.772;8.754;2023-01-19T11:09:10;0.60;99.90
16511;DHT22;8368;48.772;8.754;2023-01-19T11:11:42;0.70;99.90
16511;DHT22;8368;48.772;8.754;2023-01-19T11:14:13;0.60;99.90
16511;DHT22;8368;48.772;8.754;2023-01-19T11:16:45;0.60;99.90
16511;DHT22;8368;48.772;8.754;2023-01-19T11:19:20;0.70;99.90
16511;DHT22;8368;48.772;8.754;2023-01-19T11:21:46;0.60;99.90
16511;DHT22;8368;48.772;8.754;2023-01-19T11:24:12;0.60;99.90
16511;DHT22;8368;48.772;8.754;2023-01-19T11:26:41;0.70;99.90
16511;DHT22;8368;48.772;8.754;2023-01-19T11:29:17;0.60;99.90
16511;DHT22;8368;48.772;8.754;2023-01-19T11:31:43;0.60;99.90
16511;DHT22;8368;48.772;8.754;2023-01-19T11:34:32;0.40;99.90
16511;DHT22;8368;48.772;8.754;2023-01-19T11:39:51;0.30;99.90
16511;DHT22;8368;48.772;8.754;2023-01-19T11:42:18;0.40;99.90
16511;DHT22;8368;48.772;8.754;2023-01-19T11:47:43;0.50;99.90
16511;DHT22;8368;48.772;8.754;2023-01-19T11:50:23;0.60;99.90
16511;DHT22;8368;48.772;8.754;2023-01-19T11:53:22;0.60;99.90
16511;DHT22;8368;48.772;8.754;2023-01-19T11:58:19;0.60;99.90
16511;DHT22;8368;48.772;8.754;2023-01-19T12:00:53;0.60;99.90
16511;DHT22;8368;48.772;8.754;2023-01-19T12:03:29;0.50;99.90
16511;DHT22;8368;48.772;8.754;2023-01-19T12:06:03;0.50;99.90
16511;DHT22;8368;48.772;8.754;2023-01-19T12:08:34;0.50;99.90
16511;DHT22;8368;48.772;8.754;2023-01-19T12:11:01;0.50;99.90
16511;DHT22;8368;48.772;8.754;2023-01-19T12:13:28;0.60;99.90
16511;DHT22;8368;48.772;8.754;2023-01-19T12:19:05;0.60;99.90
16511;DHT22;8368;48.772;8.754;2023-01-19T12:21:35;0.60;99.90
16511;DHT22;8368;48.772;8.754;2023-01-19T12:24:17;0.60;99.90
16511;DHT22;8368;48.772;8.754;2023-01-19T12:26:59;0.60;99.90
16511;DHT22;8368;48.772;8.754;2023-01-19T12:29:34;0.60;99.90
16511;DHT22;8368;48.772;8.754;2023-01-19T12:34:44;0.60;99.90
16511;DHT22;8368;48.772;8.754;2023-01-19T12:39:56;0.50;99.90
16511;DHT22;8368;48.772;8.754;2023-01-19T12:42:23;0.50;99.90
16511;DHT22;8368;48.772;8.754;2023-01-19T12:45:12;0.60;99.90
16511;DHT22;8368;48.772;8.754;2023-01-19T12:47:37;0.70;99.90
16511;DHT22;8368;48.772;8.754;2023-01-19T12:50:06;0.80;99.90
16511;DHT22;8368;48.772;8.754;2023-01-19T12:52:58;0.70;99.90
16511;DHT22;8368;48.772;8.754;2023-01-19T12:58:05;0.70;99.90
16511;DHT22;8368;48.772;8.754;2023-01-19T13:00:39;0.60;99.90
16511;DHT22;8368;48.772;8.754;2023-01-19T13:13:31;0.80;99.90
16511;DHT22;8368;48.772;8.754;2023-01-19T13:19:13;0.90;99.90
16511;DHT22;8368;48.772;8.754;2023-01-19T13:21:45;1.00;99.90
16511;DHT22;8368;48.772;8.754;2023-01-19T13:24:18;1.00;99.90
16511;DHT22;8368;48.772;8.754;2023-01-19T13:29:29;1.00;99.90
16511;DHT22;8368;48.772;8.754;2023-01-19T13:32:00;1.10;99.90
16511;DHT22;8368;48.772;8.754;2023-01-19T13:34:54;1.20;99.90
16511;DHT22;8368;48.772;8.754;2023-01-19T13:37:29;1.20;99.90
16511;DHT22;8368;48.772;8.754;2023-01-19T13:39:58;1.20;99.90
16511;DHT22;8368;48.772;8.754;2023-01-19T13:42:28;1.20;99.90
16511;DHT22;8368;48.772;8.754;2023-01-19T13:44:58;1.20;99.90
16511;DHT22;8368;48.772;8.754;2023-01-19T13:47:38;1.30;99.90
16511;DHT22;8368;48.772;8.754;2023-01-19T13:50:12;1.20;99.90
16511;DHT22;8368;48.772;8.754;2023-01-19T13:52:42;1.10;99.90
16511;DHT22;8368;48.772;8.754;2023-01-19T13:55:13;1.00;99.90
16511;DHT22;8368;48.772;8.754;2023-01-19T13:57:41;1.00;99.90
16511;DHT22;8368;48.772;8.754;2023-01-19T14:02:39;0.90;99.90
16511;DHT22;8368;48.772;8.754;2023-01-19T14:05:38;0.80;99.90
16511;DHT22;8368;48.772;8.754;2023-01-19T14:10:35;0.50;99.90
16511;DHT22;8368;48.772;8.754;2023-01-19T14:13:12;0.40;99.90
16511;DHT22;8368;48.772;8.754;2023-01-19T14:15:38;0.40;99.90
16511;DHT22;8368;48.772;8.754;2023-01-19T14:21:08;0.30;99.90
16511;DHT22;8368;48.772;8.754;2023-01-19T14:26:44;0.30;99.90
16511;DHT22;8368;48.772;8.754;2023-01-19T14:29:26;0.40;99.90
16511;DHT22;8368;48.772;8.754;2023-01-19T14:42:53;0.40;99.90
16511;DHT22;8368;48.772;8.754;2023-01-19T14:47:59;0.40;99.90
16511;DHT22;8368;48.772;8.754;2023-01-19T14:50:26;0.50;99.90
16511;DHT22;8368;48.772;8.754;2023-01-19T14:55:32;0.40;99.90
16511;DHT22;8368;48.772;8.754;2023-01-19T14:57:59;0.40;99.90
16511;DHT22;8368;48.772;8.754;2023-01-19T15:00:25;0.30;99.90
16511;DHT22;8368;48.772;8.754;2023-01-19T15:02:51;0.40;99.90
16511;DHT22;8368;48.772;8.754;2023-01-19T15:05:17;0.30;99.90
16511;DHT22;8368;48.772;8.754;2023-01-19T15:07:44;0.30;99.90
16511;DHT22;8368;48.772;8.754;2023-01-19T15:10:21;0.30;99.90
16511;DHT22;8368;48.772;8.754;2023-01-19T15:12:51;0.30;99.90
16511;DHT22;8368;48.772;8.754;2023-01-19T15:15:29;0.30;99.90
16511;DHT22;8368;48.772;8.754;2023-01-19T15:17:56;0.40;99.90
16511;DHT22;8368;48.772;8.754;2023-01-19T15:20:22;0.40;99.90
16511;DHT22;8368;48.772;8.754;2023-01-19T15:22:48;0.30;99.90
16511;DHT22;8368;48.772;8.754;2023-01-19T15:25:19;0.30;99.90
16511;DHT22;8368;48.772;8.754;2023-01-19T15:27:46;0.20;99.90
16511;DHT22;8368;48.772;8.754;2023-01-19T15:30:30;0.10;99.90
16511;DHT22;8368;48.772;8.754;2023-01-19T15:32:57;0.00;99.90
16511;DHT22;8368;48.772;8.754;2023-01-19T15:35:23;-0.10;99.90
16511;DHT22;8368;48.772;8.754;2023-01-19T15:37:49;-0.20;99.90
16511;DHT22;8368;48.772;8.754;2023-01-19T15:40:17;-0.20;99.90
16511;DHT22;8368;48.772;8.754;2023-01-19T15:42:43;-0.30;99.90
16511;DHT22;8368;48.772;8.754;2023-01-19T15:45:36;-0.30;99.90
16511;DHT22;8368;48.772;8.754;2023-01-19T15:48:05;-0.40;99.90
16511;DHT22;8368;48.772;8.754;2023-01-19T15:50:33;-0.40;99.90
16511;DHT22;8368;48.772;8.754;2023-01-19T15:52:59;-0.50;99.90
16511;DHT22;8368;48.772;8.754;2023-01-19T15:55:25;-0.60;99.90
16511;DHT22;8368;48.772;8.754;2023-01-19T15:57:51;-0.70;99.90
16511;DHT22;8368;48.772;8.754;2023-01-19T16:00:16;-0.80;99.90
16511;DHT22;8368;48.772;8.754;2023-01-19T16:02:42;-0.90;99.90
16511;DHT22;8368;48.772;8.754;2023-01-19T16:05:08;-0.90;99.90
16511;DHT22;8368;48.772;8.754;2023-01-19T16:07:34;-1.00;99.90
16511;DHT22;8368;48.772;8.754;2023-01-19T16:09:59;-1.10;99.90
16511;DHT22;8368;48.772;8.754;2023-01-19T16:12:26;-1.20;99.90
16511;DHT22;8368;48.772;8.754;2023-01-19T16:14:52;-1.20;99.90
16511;DHT22;8368;48.772;8.754;2023-01-19T16:17:17;-1.30;99.90
16511;DHT22;8368;48.772;8.754;2023-01-19T16:19:44;-1.30;99.90
16511;DHT22;8368;48.772;8.754;2023-01-19T16:22:10;-1.30;99.90
16511;DHT22;8368;48.772;8.754;2023-01-19T16:24:36;-1.30;99.90
16511;DHT22;8368;48.772;8.754;2023-01-19T16:27:01;-1.40;99.90
16511;DHT22;8368;48.772;8.754;2023-01-19T16:29:28;-1.50;99.90
16511;DHT22;8368;48.772;8.754;2023-01-19T16:31:54;-1.40;99.90
16511;DHT22;8368;48.772;8.754;2023-01-19T16:34:19;-1.40;99.90
16511;DHT22;8368;48.772;8.754;2023-01-19T16:36:45;-1.40;99.90
16511;DHT22;8368;48.772;8.754;2023-01-19T16:39:12;-1.40;99.90
16511;DHT22;8368;48.772;8.754;2023-01-19T16:41:38;-1.30;99.90
16511;DHT22;8368;48.772;8.754;2023-01-19T16:44:05;-1.30;99.90
16511;DHT22;8368;48.772;8.754;2023-01-19T16:46:35;-1.30;99.90
16511;DHT22;8368;48.772;8.754;2023-01-19T16:51:36;-1.40;99.90
16511;DHT22;8368;48.772;8.754;2023-01-19T16:54:02;-1.50;99.90
16511;DHT22;8368;48.772;8.754;2023-01-19T16:56:28;-1.60;99.90
16511;DHT22;8368;48.772;8.754;2023-01-19T16:58:57;-1.60;99.90
16511;DHT22;8368;48.772;8.754;2023-01-19T17:01:26;-1.70;99.90
16511;DHT22;8368;48.772;8.754;2023-01-19T17:03:52;-1.70;99.90
16511;DHT22;8368;48.772;8.754;2023-01-19T17:06:19;-1.70;99.90
16511;DHT22;8368;48.772;8.754;2023-01-19T17:08:45;-1.70;99.90
16511;DHT22;8368;48.772;8.754;2023-01-19T17:11:13;-1.70;99.90
16511;DHT22;8368;48.772;8.754;2023-01-19T17:13:43;-1.70;99.90
16511;DHT22;8368;48.772;8.754;2023-01-19T17:16:09;-1.70;99.90
16511;DHT22;8368;48.772;8.754;2023-01-19T17:18:35;-1.70;99.90
16511;DHT22;8368;48.772;8.754;2023-01-19T17:21:04;-1.60;99.90
16511;DHT22;8368;48.772;8.754;2023-01-19T17:23:31;-1.70;99.90
16511;DHT22;8368;48.772;8.754;2023-01-19T17:25:57;-1.60;99.90
16511;DHT22;8368;48.772;8.754;2023-01-19T17:28:23;-1.70;99.90
16511;DHT22;8368;48.772;8.754;2023-01-19T17:30:49;-1.80;99.90
16511;DHT22;8368;48.772;8.754;2023-01-19T17:33:19;-1.80;99.90
16511;DHT22;8368;48.772;8.754;2023-01-19T17:35:45;-1.80;99.90
16511;DHT22;8368;48.772;8.754;2023-01-19T17:38:11;-1.80;99.90
16511;DHT22;8368;48.772;8.754;2023-01-19T17:40:37;-1.90;99.90